Ozark Regional Airport
KBPK : now visible

Airfield :











YOU CAN JOIN US ON...

 
LOGIN :

Register | Disclaimer

   EN    FR    IT 

 









Legend :    VFR   Marginal VFR   IFR   Intensive IFR   Very Intensive IFR
Visi :
Ceiling :
>= 8 km
>= 3000ft
5 to 8 km
1000 to 3000 ft
1500m to 5 km
500 to 1000 ft
800 to 1500m
200 to 500 ft
< 800m
< 200 ft
Symbols :   Thunderstorms  Fog  Heavy snow  Heavy precipitations  Wind > 20 kt






- Airport Elevation : 928 ft


KBPK - Ozark Regional

CURRENT METAR :
  • 181753Z AUTO 18012G23KT 10SM CLR 27/18 A3004 RMK AO2 SLP163 T02720183 10289 20222 53002

EXPIRED METARs :
  • 181653Z AUTO 18010G19KT 10SM FEW028 28/21 A3004 RMK AO2 SLP160 T02830206
  • 181553Z AUTO 20011KT 10SM FEW028 SCT035 27/21 A3003 RMK AO2 SLP159 T02720206
  • 181513Z AUTO 22009KT 10SM SCT019 SCT026 27/22 A3004 RMK AO2 T02670217
  • 181453Z AUTO 17007KT 10SM BKN019 OVC025 26/22 A3003 RMK AO2 SLP160 T02560217 51003
  • 181353Z AUTO 16007KT 10SM BKN025 24/21 A3003 RMK AO2 SLP160 T02440206

TAF KBPK
Valid from the 18 at 18:00 until the 19 at 18:00 UTC


181720Z 1818/1918 18011G19KT P6SM SCT030 BKN050
FM190200 VRB05KT P6SM BKN250
FM191300 15007KT P6SM BKN250
KZME FIR / North America



MET'MAP, your aeronautical weather chart ! - Copyright ORBIFLY December 2007 - Disclaimer

ORBIFLY MET'MAP TEAM :

Programming & Development : Alexandra Zaïnal
Original concept : Baudouin d'Aumeries
Technical & hardware support : Manuel Goepfert
Assistance : Marc-Olivier Méhu




SOURCES & CREDITS :

   NOAA       Earth
Advisory